sensor_id;sensor_type;location;lat;lon;timestamp;temperature;humidity
60965;DHT22;46834;51.100;6.886;2022-11-14T00:00:38;7.50;45.10
60965;DHT22;46834;51.100;6.886;2022-11-14T00:03:05;7.50;45.00
60965;DHT22;46834;51.100;6.886;2022-11-14T00:05:32;7.40;44.70
60965;DHT22;46834;51.100;6.886;2022-11-14T00:08:03;7.40;44.70
60965;DHT22;46834;51.100;6.886;2022-11-14T00:10:29;7.30;44.50
60965;DHT22;46834;51.100;6.886;2022-11-14T00:12:55;7.30;44.50
60965;DHT22;46834;51.100;6.886;2022-11-14T00:15:20;7.20;44.40
60965;DHT22;46834;51.100;6.886;2022-11-14T00:17:46;7.20;44.40
60965;DHT22;46834;51.100;6.886;2022-11-14T00:20:12;7.20;44.40
60965;DHT22;46834;51.100;6.886;2022-11-14T00:22:37;7.10;44.30
60965;DHT22;46834;51.100;6.886;2022-11-14T00:25:04;7.00;44.30
60965;DHT22;46834;51.100;6.886;2022-11-14T00:27:30;7.00;44.40
60965;DHT22;46834;51.100;6.886;2022-11-14T00:29:55;7.00;44.40
60965;DHT22;46834;51.100;6.886;2022-11-14T00:32:21;7.00;44.50
60965;DHT22;46834;51.100;6.886;2022-11-14T00:34:48;6.90;44.40
60965;DHT22;46834;51.100;6.886;2022-11-14T00:37:13;6.90;44.40
60965;DHT22;46834;51.100;6.886;2022-11-14T00:39:39;6.80;44.30
60965;DHT22;46834;51.100;6.886;2022-11-14T00:42:05;6.80;44.40
60965;DHT22;46834;51.100;6.886;2022-11-14T00:44:31;6.80;44.40
60965;DHT22;46834;51.100;6.886;2022-11-14T00:46:56;6.80;44.40
60965;DHT22;46834;51.100;6.886;2022-11-14T00:49:22;6.70;44.40
60965;DHT22;46834;51.100;6.886;2022-11-14T00:51:48;6.70;44.40
60965;DHT22;46834;51.100;6.886;2022-11-14T00:54:14;6.70;45.10
60965;DHT22;46834;51.100;6.886;2022-11-14T00:56:39;6.70;44.60
60965;DHT22;46834;51.100;6.886;2022-11-14T00:59:05;6.70;44.70
60965;DHT22;46834;51.100;6.886;2022-11-14T01:01:31;6.60;44.70
60965;DHT22;46834;51.100;6.886;2022-11-14T01:03:56;6.60;44.80
60965;DHT22;46834;51.100;6.886;2022-11-14T01:06:22;6.60;44.70
60965;DHT22;46834;51.100;6.886;2022-11-14T01:08:49;6.60;44.70
60965;DHT22;46834;51.100;6.886;2022-11-14T01:11:19;6.60;44.80
60965;DHT22;46834;51.100;6.886;2022-11-14T01:13:46;6.60;44.80
60965;DHT22;46834;51.100;6.886;2022-11-14T01:16:12;6.60;44.80
60965;DHT22;46834;51.100;6.886;2022-11-14T01:18:38;6.60;44.80
60965;DHT22;46834;51.100;6.886;2022-11-14T01:21:10;6.60;44.80
60965;DHT22;46834;51.100;6.886;2022-11-14T01:23:37;6.70;45.10
60965;DHT22;46834;51.100;6.886;2022-11-14T01:26:13;6.60;44.80
60965;DHT22;46834;51.100;6.886;2022-11-14T01:28:39;6.60;45.00
60965;DHT22;46834;51.100;6.886;2022-11-14T01:31:09;6.60;44.80
60965;DHT22;46834;51.100;6.886;2022-11-14T01:33:42;6.60;44.90
60965;DHT22;46834;51.100;6.886;2022-11-14T01:36:09;6.60;44.80
60965;DHT22;46834;51.100;6.886;2022-11-14T01:38:36;6.60;44.80
60965;DHT22;46834;51.100;6.886;2022-11-14T01:41:03;6.60;44.80
60965;DHT22;46834;51.100;6.886;2022-11-14T01:43:35;6.60;44.80
60965;DHT22;46834;51.100;6.886;2022-11-14T01:46:12;6.60;45.00
60965;DHT22;46834;51.100;6.886;2022-11-14T01:49:09;6.60;44.80
60965;DHT22;46834;51.100;6.886;2022-11-14T01:51:48;6.60;45.00
60965;DHT22;46834;51.100;6.886;2022-11-14T01:54:25;6.60;44.90
60965;DHT22;46834;51.100;6.886;2022-11-14T01:56:58;6.60;44.90
60965;DHT22;46834;51.100;6.886;2022-11-14T01:59:33;6.50;44.80
60965;DHT22;46834;51.100;6.886;2022-11-14T02:02:07;6.50;44.80
60965;DHT22;46834;51.100;6.886;2022-11-14T02:04:42;6.50;44.80
60965;DHT22;46834;51.100;6.886;2022-11-14T02:07:11;6.50;44.90
60965;DHT22;46834;51.100;6.886;2022-11-14T02:09:41;6.50;44.80
60965;DHT22;46834;51.100;6.886;2022-11-14T02:12:12;6.40;44.80
60965;DHT22;46834;51.100;6.886;2022-11-14T02:14:40;6.40;44.90
60965;DHT22;46834;51.100;6.886;2022-11-14T02:17:10;6.40;44.90
60965;DHT22;46834;51.100;6.886;2022-11-14T02:19:51;6.50;45.00
60965;DHT22;46834;51.100;6.886;2022-11-14T02:22:18;6.40;45.70
60965;DHT22;46834;51.100;6.886;2022-11-14T02:24:44;6.40;44.90
60965;DHT22;46834;51.100;6.886;2022-11-14T02:27:12;6.40;44.90
60965;DHT22;46834;51.100;6.886;2022-11-14T02:29:39;6.40;45.00
60965;DHT22;46834;51.100;6.886;2022-11-14T02:32:04;6.40;44.90
60965;DHT22;46834;51.100;6.886;2022-11-14T02:34:31;6.40;44.90
60965;DHT22;46834;51.100;6.886;2022-11-14T02:36:56;6.40;45.00
60965;DHT22;46834;51.100;6.886;2022-11-14T02:39:23;6.40;45.00
60965;DHT22;46834;51.100;6.886;2022-11-14T02:41:49;6.40;45.50
60965;DHT22;46834;51.100;6.886;2022-11-14T02:44:16;6.40;44.90
60965;DHT22;46834;51.100;6.886;2022-11-14T02:46:42;6.40;45.00
60965;DHT22;46834;51.100;6.886;2022-11-14T02:49:08;6.40;45.60
60965;DHT22;46834;51.100;6.886;2022-11-14T02:51:33;6.40;44.90
60965;DHT22;46834;51.100;6.886;2022-11-14T02:53:59;6.40;44.90
60965;DHT22;46834;51.100;6.886;2022-11-14T02:56:25;6.40;44.90
60965;DHT22;46834;51.100;6.886;2022-11-14T02:58:51;6.30;44.90
60965;DHT22;46834;51.100;6.886;2022-11-14T03:01:16;6.30;44.90
60965;DHT22;46834;51.100;6.886;2022-11-14T03:03:42;6.30;44.90
60965;DHT22;46834;51.100;6.886;2022-11-14T03:06:08;6.30;45.00
60965;DHT22;46834;51.100;6.886;2022-11-14T03:08:33;6.30;45.00
60965;DHT22;46834;51.100;6.886;2022-11-14T03:11:03;6.20;44.90
60965;DHT22;46834;51.100;6.886;2022-11-14T03:13:30;6.20;45.00
60965;DHT22;46834;51.100;6.886;2022-11-14T03:15:56;6.20;45.00
60965;DHT22;46834;51.100;6.886;2022-11-14T03:18:21;6.20;45.60
60965;DHT22;46834;51.100;6.886;2022-11-14T03:20:47;6.10;45.00
60965;DHT22;46834;51.100;6.886;2022-11-14T03:23:13;6.10;45.00
60965;DHT22;46834;51.100;6.886;2022-11-14T03:25:38;6.10;45.00
60965;DHT22;46834;51.100;6.886;2022-11-14T03:28:04;6.10;45.00
60965;DHT22;46834;51.100;6.886;2022-11-14T03:30:30;6.10;45.00
60965;DHT22;46834;51.100;6.886;2022-11-14T03:32:56;6.10;45.00
60965;DHT22;46834;51.100;6.886;2022-11-14T03:35:22;6.10;45.00
60965;DHT22;46834;51.100;6.886;2022-11-14T03:37:48;6.10;45.00
60965;DHT22;46834;51.100;6.886;2022-11-14T03:40:14;6.10;45.10
60965;DHT22;46834;51.100;6.886;2022-11-14T03:42:39;6.10;45.10
60965;DHT22;46834;51.100;6.886;2022-11-14T03:45:05;6.00;45.00
60965;DHT22;46834;51.100;6.886;2022-11-14T03:47:31;6.10;45.10
60965;DHT22;46834;51.100;6.886;2022-11-14T03:49:57;6.00;45.00
60965;DHT22;46834;51.100;6.886;2022-11-14T03:52:22;6.00;45.10
60965;DHT22;46834;51.100;6.886;2022-11-14T03:54:50;6.00;45.00
60965;DHT22;46834;51.100;6.886;2022-11-14T03:57:16;6.00;45.00
60965;DHT22;46834;51.100;6.886;2022-11-14T03:59:42;6.00;45.00
60965;DHT22;46834;51.100;6.886;2022-11-14T04:02:07;6.00;45.00
60965;DHT22;46834;51.100;6.886;2022-11-14T04:04:33;6.00;45.00
60965;DHT22;46834;51.100;6.886;2022-11-14T04:06:59;6.00;45.00
60965;DHT22;46834;51.100;6.886;2022-11-14T04:09:25;5.90;45.80
60965;DHT22;46834;51.100;6.886;2022-11-14T04:11:50;5.90;45.80
60965;DHT22;46834;51.100;6.886;2022-11-14T04:14:16;5.90;45.80
60965;DHT22;46834;51.100;6.886;2022-11-14T04:16:41;5.90;45.70
60965;DHT22;46834;51.100;6.886;2022-11-14T04:19:07;5.90;45.70
60965;DHT22;46834;51.100;6.886;2022-11-14T04:21:33;5.90;45.70
60965;DHT22;46834;51.100;6.886;2022-11-14T04:23:58;5.90;45.60
60965;DHT22;46834;51.100;6.886;2022-11-14T04:26:24;5.90;45.60
60965;DHT22;46834;51.100;6.886;2022-11-14T04:28:49;5.90;45.60
60965;DHT22;46834;51.100;6.886;2022-11-14T04:31:15;5.90;45.60
60965;DHT22;46834;51.100;6.886;2022-11-14T04:33:41;5.90;45.60
60965;DHT22;46834;51.100;6.886;2022-11-14T04:36:07;5.90;45.50
60965;DHT22;46834;51.100;6.886;2022-11-14T04:38:32;5.80;45.40
60965;DHT22;46834;51.100;6.886;2022-11-14T04:40:58;5.80;45.40
60965;DHT22;46834;51.100;6.886;2022-11-14T04:43:24;5.80;45.40
60965;DHT22;46834;51.100;6.886;2022-11-14T04:45:49;5.80;45.50
60965;DHT22;46834;51.100;6.886;2022-11-14T04:48:15;5.80;45.50
60965;DHT22;46834;51.100;6.886;2022-11-14T04:50:41;5.80;45.50
60965;DHT22;46834;51.100;6.886;2022-11-14T04:53:06;5.80;45.50
60965;DHT22;46834;51.100;6.886;2022-11-14T04:55:32;5.80;45.50
60965;DHT22;46834;51.100;6.886;2022-11-14T04:57:58;5.80;45.50
60965;DHT22;46834;51.100;6.886;2022-11-14T05:00:26;5.80;45.60
60965;DHT22;46834;51.100;6.886;2022-11-14T05:02:52;5.80;45.70
60965;DHT22;46834;51.100;6.886;2022-11-14T05:05:18;5.80;45.60
60965;DHT22;46834;51.100;6.886;2022-11-14T05:07:43;5.80;45.60
60965;DHT22;46834;51.100;6.886;2022-11-14T05:10:09;5.80;45.70
60965;DHT22;46834;51.100;6.886;2022-11-14T05:12:35;5.80;45.70
60965;DHT22;46834;51.100;6.886;2022-11-14T05:15:00;5.80;45.70
60965;DHT22;46834;51.100;6.886;2022-11-14T05:17:26;5.80;45.60
60965;DHT22;46834;51.100;6.886;2022-11-14T05:19:52;5.80;46.20
60965;DHT22;46834;51.100;6.886;2022-11-14T05:22:18;5.70;45.60
60965;DHT22;46834;51.100;6.886;2022-11-14T05:24:44;5.70;45.60
60965;DHT22;46834;51.100;6.886;2022-11-14T05:27:10;5.80;45.70
60965;DHT22;46834;51.100;6.886;2022-11-14T05:29:36;5.70;45.60
60965;DHT22;46834;51.100;6.886;2022-11-14T05:32:01;5.70;45.60
60965;DHT22;46834;51.100;6.886;2022-11-14T05:34:27;5.70;45.60
60965;DHT22;46834;51.100;6.886;2022-11-14T05:36:53;5.70;45.60
60965;DHT22;46834;51.100;6.886;2022-11-14T05:39:19;5.70;45.60
60965;DHT22;46834;51.100;6.886;2022-11-14T05:41:44;5.70;45.70
60965;DHT22;46834;51.100;6.886;2022-11-14T05:44:10;5.70;45.70
60965;DHT22;46834;51.100;6.886;2022-11-14T05:46:35;5.70;45.80
60965;DHT22;46834;51.100;6.886;2022-11-14T05:49:01;5.70;45.80
60965;DHT22;46834;51.100;6.886;2022-11-14T05:51:27;5.70;45.80
60965;DHT22;46834;51.100;6.886;2022-11-14T05:53:52;5.70;45.80
60965;DHT22;46834;51.100;6.886;2022-11-14T05:56:19;5.70;45.90
60965;DHT22;46834;51.100;6.886;2022-11-14T05:58:45;5.70;46.00
60965;DHT22;46834;51.100;6.886;2022-11-14T06:01:16;5.70;46.00
60965;DHT22;46834;51.100;6.886;2022-11-14T06:03:44;5.70;46.10
60965;DHT22;46834;51.100;6.886;2022-11-14T06:06:14;5.70;46.00
60965;DHT22;46834;51.100;6.886;2022-11-14T06:08:41;5.70;46.10
60965;DHT22;46834;51.100;6.886;2022-11-14T06:11:12;5.70;46.10
60965;DHT22;46834;51.100;6.886;2022-11-14T06:13:40;5.80;46.20
60965;DHT22;46834;51.100;6.886;2022-11-14T06:16:09;5.80;46.20
60965;DHT22;46834;51.100;6.886;2022-11-14T06:18:37;5.80;46.30
60965;DHT22;46834;51.100;6.886;2022-11-14T06:21:06;5.80;46.30
60965;DHT22;46834;51.100;6.886;2022-11-14T06:23:36;5.80;46.30
60965;DHT22;46834;51.100;6.886;2022-11-14T06:26:08;5.80;46.30
60965;DHT22;46834;51.100;6.886;2022-11-14T06:28:39;5.80;46.50
60965;DHT22;46834;51.100;6.886;2022-11-14T06:31:05;5.80;46.30
60965;DHT22;46834;51.100;6.886;2022-11-14T06:33:35;5.80;46.30
60965;DHT22;46834;51.100;6.886;2022-11-14T06:36:04;5.80;46.40
60965;DHT22;46834;51.100;6.886;2022-11-14T06:38:32;5.80;46.40
60965;DHT22;46834;51.100;6.886;2022-11-14T06:41:24;5.80;46.30
60965;DHT22;46834;51.100;6.886;2022-11-14T06:43:51;5.80;46.50
60965;DHT22;46834;51.100;6.886;2022-11-14T06:46:21;5.80;46.30
60965;DHT22;46834;51.100;6.886;2022-11-14T06:48:48;5.80;46.40
60965;DHT22;46834;51.100;6.886;2022-11-14T06:51:15;5.80;46.50
60965;DHT22;46834;51.100;6.886;2022-11-14T06:53:42;5.80;46.50
60965;DHT22;46834;51.100;6.886;2022-11-14T06:56:11;5.80;46.50
60965;DHT22;46834;51.100;6.886;2022-11-14T06:58:41;5.80;46.50
60965;DHT22;46834;51.100;6.886;2022-11-14T07:01:14;5.80;46.60
60965;DHT22;46834;51.100;6.886;2022-11-14T07:03:43;5.80;46.60
60965;DHT22;46834;51.100;6.886;2022-11-14T07:06:11;5.80;46.50
60965;DHT22;46834;51.100;6.886;2022-11-14T07:08:39;5.80;46.60
60965;DHT22;46834;51.100;6.886;2022-11-14T07:11:08;5.80;46.60
60965;DHT22;46834;51.100;6.886;2022-11-14T07:13:36;5.80;46.70
60965;DHT22;46834;51.100;6.886;2022-11-14T07:16:03;5.80;46.70
60965;DHT22;46834;51.100;6.886;2022-11-14T07:18:30;5.80;46.70
60965;DHT22;46834;51.100;6.886;2022-11-14T07:21:02;5.90;46.80
60965;DHT22;46834;51.100;6.886;2022-11-14T07:23:33;5.90;46.90
60965;DHT22;46834;51.100;6.886;2022-11-14T07:26:03;5.90;47.00
60965;DHT22;46834;51.100;6.886;2022-11-14T07:28:34;6.00;46.30
60965;DHT22;46834;51.100;6.886;2022-11-14T07:31:04;6.00;46.80
60965;DHT22;46834;51.100;6.886;2022-11-14T07:33:33;6.00;46.20
60965;DHT22;46834;51.100;6.886;2022-11-14T07:35:59;6.10;46.30
60965;DHT22;46834;51.100;6.886;2022-11-14T07:38:26;6.10;46.30
60965;DHT22;46834;51.100;6.886;2022-11-14T07:40:56;6.20;46.30
60965;DHT22;46834;51.100;6.886;2022-11-14T07:43:23;6.30;46.60
60965;DHT22;46834;51.100;6.886;2022-11-14T07:45:49;6.30;46.50
60965;DHT22;46834;51.100;6.886;2022-11-14T07:48:15;6.40;46.50
60965;DHT22;46834;51.100;6.886;2022-11-14T07:50:42;6.40;46.50
60965;DHT22;46834;51.100;6.886;2022-11-14T07:53:08;6.50;46.60
60965;DHT22;46834;51.100;6.886;2022-11-14T07:55:35;6.50;46.60
60965;DHT22;46834;51.100;6.886;2022-11-14T07:58:01;6.60;46.70
60965;DHT22;46834;51.100;6.886;2022-11-14T08:00:28;6.60;46.70
60965;DHT22;46834;51.100;6.886;2022-11-14T08:02:54;6.70;46.80
60965;DHT22;46834;51.100;6.886;2022-11-14T08:05:19;6.70;46.80
60965;DHT22;46834;51.100;6.886;2022-11-14T08:07:45;6.80;46.80
60965;DHT22;46834;51.100;6.886;2022-11-14T08:10:11;6.90;46.90
60965;DHT22;46834;51.100;6.886;2022-11-14T08:12:39;6.90;46.80
60965;DHT22;46834;51.100;6.886;2022-11-14T08:15:10;7.00;46.80
60965;DHT22;46834;51.100;6.886;2022-11-14T08:17:37;7.00;47.00
60965;DHT22;46834;51.100;6.886;2022-11-14T08:20:04;7.00;46.80
60965;DHT22;46834;51.100;6.886;2022-11-14T08:22:31;7.10;46.90
60965;DHT22;46834;51.100;6.886;2022-11-14T08:24:57;7.10;46.90
60965;DHT22;46834;51.100;6.886;2022-11-14T08:27:23;7.20;46.90
60965;DHT22;46834;51.100;6.886;2022-11-14T08:29:49;7.20;46.90
60965;DHT22;46834;51.100;6.886;2022-11-14T08:32:16;7.30;46.90
60965;DHT22;46834;51.100;6.886;2022-11-14T08:34:42;7.30;46.90
60965;DHT22;46834;51.100;6.886;2022-11-14T08:37:08;7.30;46.80
60965;DHT22;46834;51.100;6.886;2022-11-14T08:39:34;7.40;46.90
60965;DHT22;46834;51.100;6.886;2022-11-14T08:41:59;7.40;46.90
60965;DHT22;46834;51.100;6.886;2022-11-14T08:44:25;7.40;47.00
60965;DHT22;46834;51.100;6.886;2022-11-14T08:46:51;7.50;47.10
60965;DHT22;46834;51.100;6.886;2022-11-14T08:49:17;7.40;47.00
60965;DHT22;46834;51.100;6.886;2022-11-14T08:51:42;7.50;47.00
60965;DHT22;46834;51.100;6.886;2022-11-14T08:54:08;7.60;47.10
60965;DHT22;46834;51.100;6.886;2022-11-14T08:56:34;7.60;47.00
60965;DHT22;46834;51.100;6.886;2022-11-14T08:59:02;7.60;46.90
60965;DHT22;46834;51.100;6.886;2022-11-14T09:01:28;7.60;47.00
60965;DHT22;46834;51.100;6.886;2022-11-14T09:03:54;7.60;46.90
60965;DHT22;46834;51.100;6.886;2022-11-14T09:06:19;7.60;46.90
60965;DHT22;46834;51.100;6.886;2022-11-14T09:08:45;7.70;47.00
60965;DHT22;46834;51.100;6.886;2022-11-14T09:11:11;7.70;47.00
60965;DHT22;46834;51.100;6.886;2022-11-14T09:13:36;7.70;47.00
60965;DHT22;46834;51.100;6.886;2022-11-14T09:16:02;7.70;47.10
60965;DHT22;46834;51.100;6.886;2022-11-14T09:18:29;7.70;47.10
60965;DHT22;46834;51.100;6.886;2022-11-14T09:21:00;7.80;47.10
60965;DHT22;46834;51.100;6.886;2022-11-14T09:23:27;7.80;47.20
60965;DHT22;46834;51.100;6.886;2022-11-14T09:25:53;7.80;47.10
60965;DHT22;46834;51.100;6.886;2022-11-14T09:28:20;7.80;47.10
60965;DHT22;46834;51.100;6.886;2022-11-14T09:30:45;7.80;47.20
60965;DHT22;46834;51.100;6.886;2022-11-14T09:33:11;7.80;47.30
60965;DHT22;46834;51.100;6.886;2022-11-14T09:35:37;7.80;47.20
60965;DHT22;46834;51.100;6.886;2022-11-14T09:38:05;7.80;47.30
60965;DHT22;46834;51.100;6.886;2022-11-14T09:46:30;7.90;47.40
60965;DHT22;46834;51.100;6.886;2022-11-14T09:48:57;7.90;47.60
60965;DHT22;46834;51.100;6.886;2022-11-14T09:51:26;7.90;47.40
60965;DHT22;46834;51.100;6.886;2022-11-14T09:54:20;7.90;47.50
60965;DHT22;46834;51.100;6.886;2022-11-14T09:56:48;7.90;47.70
60965;DHT22;46834;51.100;6.886;2022-11-14T09:59:15;8.00;47.50
60965;DHT22;46834;51.100;6.886;2022-11-14T10:01:59;8.00;47.60
60965;DHT22;46834;51.100;6.886;2022-11-14T10:16:19;8.20;48.00
60965;DHT22;46834;51.100;6.886;2022-11-14T10:19:32;8.20;47.90
60965;DHT22;46834;51.100;6.886;2022-11-14T10:25:26;8.30;48.00
60965;DHT22;46834;51.100;6.886;2022-11-14T10:31:06;8.40;48.00
60965;DHT22;46834;51.100;6.886;2022-11-14T10:36:52;8.40;48.20
60965;DHT22;46834;51.100;6.886;2022-11-14T10:39:30;8.50;48.10
60965;DHT22;46834;51.100;6.886;2022-11-14T10:42:15;8.50;48.00
60965;DHT22;46834;51.100;6.886;2022-11-14T10:44:56;8.50;48.10
60965;DHT22;46834;51.100;6.886;2022-11-14T10:47:34;8.60;48.30
60965;DHT22;46834;51.100;6.886;2022-11-14T10:52:59;8.60;48.20
60965;DHT22;46834;51.100;6.886;2022-11-14T10:55:28;8.70;48.10
60965;DHT22;46834;51.100;6.886;2022-11-14T10:57:54;8.70;48.10
60965;DHT22;46834;51.100;6.886;2022-11-14T11:00:20;8.70;48.10
60965;DHT22;46834;51.100;6.886;2022-11-14T11:02:52;8.70;48.10
60965;DHT22;46834;51.100;6.886;2022-11-14T11:05:24;8.70;48.10
60965;DHT22;46834;51.100;6.886;2022-11-14T11:07:58;8.70;48.10
60965;DHT22;46834;51.100;6.886;2022-11-14T11:10:45;8.80;48.20
60965;DHT22;46834;51.100;6.886;2022-11-14T11:13:39;8.80;48.20
60965;DHT22;46834;51.100;6.886;2022-11-14T11:16:12;8.80;48.80
60965;DHT22;46834;51.100;6.886;2022-11-14T11:18:38;8.90;48.30
60965;DHT22;46834;51.100;6.886;2022-11-14T11:21:09;8.90;48.20
60965;DHT22;46834;51.100;6.886;2022-11-14T11:23:54;8.90;48.20
60965;DHT22;46834;51.100;6.886;2022-11-14T11:34:22;9.00;48.20
60965;DHT22;46834;51.100;6.886;2022-11-14T11:36:58;9.00;48.20
60965;DHT22;46834;51.100;6.886;2022-11-14T11:39:44;9.00;48.20
60965;DHT22;46834;51.100;6.886;2022-11-14T11:42:45;9.10;48.20
60965;DHT22;46834;51.100;6.886;2022-11-14T11:45:17;9.10;48.30
60965;DHT22;46834;51.100;6.886;2022-11-14T11:50:41;9.10;48.20
60965;DHT22;46834;51.100;6.886;2022-11-14T11:53:23;9.20;48.30
60965;DHT22;46834;51.100;6.886;2022-11-14T11:56:00;9.20;48.30
60965;DHT22;46834;51.100;6.886;2022-11-14T11:58:45;9.30;48.40
60965;DHT22;46834;51.100;6.886;2022-11-14T12:01:13;9.30;48.30
60965;DHT22;46834;51.100;6.886;2022-11-14T12:03:48;9.30;48.20
60965;DHT22;46834;51.100;6.886;2022-11-14T12:06:26;9.40;48.30
60965;DHT22;46834;51.100;6.886;2022-11-14T12:11:53;9.40;48.30
60965;DHT22;46834;51.100;6.886;2022-11-14T12:24:01;9.50;48.40
60965;DHT22;46834;51.100;6.886;2022-11-14T12:29:43;9.60;48.40
60965;DHT22;46834;51.100;6.886;2022-11-14T12:32:27;9.70;48.40
60965;DHT22;46834;51.100;6.886;2022-11-14T12:35:04;9.70;48.30
60965;DHT22;46834;51.100;6.886;2022-11-14T12:37:41;9.70;48.20
60965;DHT22;46834;51.100;6.886;2022-11-14T12:40:31;9.70;48.20
60965;DHT22;46834;51.100;6.886;2022-11-14T12:43:01;9.70;48.30
60965;DHT22;46834;51.100;6.886;2022-11-14T12:48:22;9.70;48.30
60965;DHT22;46834;51.100;6.886;2022-11-14T12:50:56;9.70;48.30
60965;DHT22;46834;51.100;6.886;2022-11-14T12:59:16;9.70;48.30
60965;DHT22;46834;51.100;6.886;2022-11-14T13:11:41;9.70;48.10
60965;DHT22;46834;51.100;6.886;2022-11-14T13:14:28;9.70;48.10
60965;DHT22;46834;51.100;6.886;2022-11-14T13:20:21;9.60;48.00
60965;DHT22;46834;51.100;6.886;2022-11-14T13:28:47;9.50;48.00
60965;DHT22;46834;51.100;6.886;2022-11-14T13:33:59;9.50;48.10
60965;DHT22;46834;51.100;6.886;2022-11-14T13:37:15;9.50;48.20
60965;DHT22;46834;51.100;6.886;2022-11-14T13:42:53;9.50;48.30
60965;DHT22;46834;51.100;6.886;2022-11-14T13:45:41;9.50;48.30
60965;DHT22;46834;51.100;6.886;2022-11-14T13:48:27;9.50;48.30
60965;DHT22;46834;51.100;6.886;2022-11-14T13:51:20;9.50;48.40
60965;DHT22;46834;51.100;6.886;2022-11-14T13:53:48;9.50;48.30
60965;DHT22;46834;51.100;6.886;2022-11-14T13:56:36;9.50;48.30
60965;DHT22;46834;51.100;6.886;2022-11-14T14:04:39;9.50;48.30
60965;DHT22;46834;51.100;6.886;2022-11-14T14:10:47;9.60;48.40
60965;DHT22;46834;51.100;6.886;2022-11-14T14:16:44;9.60;48.40
60965;DHT22;46834;51.100;6.886;2022-11-14T14:19:20;9.60;48.40
60965;DHT22;46834;51.100;6.886;2022-11-14T14:24:58;9.60;48.40
60965;DHT22;46834;51.100;6.886;2022-11-14T14:27:59;9.60;48.40
60965;DHT22;46834;51.100;6.886;2022-11-14T14:31:11;9.60;48.40
60965;DHT22;46834;51.100;6.886;2022-11-14T14:33:41;9.60;48.30
60965;DHT22;46834;51.100;6.886;2022-11-14T14:38:50;9.60;48.40
60965;DHT22;46834;51.100;6.886;2022-11-14T14:41:41;9.60;48.30
60965;DHT22;46834;51.100;6.886;2022-11-14T14:44:23;9.60;48.30
60965;DHT22;46834;51.100;6.886;2022-11-14T14:49:40;9.60;48.40
60965;DHT22;46834;51.100;6.886;2022-11-14T14:54:57;9.60;48.40
60965;DHT22;46834;51.100;6.886;2022-11-14T14:57:27;9.60;48.30
60965;DHT22;46834;51.100;6.886;2022-11-14T15:00:22;9.60;48.30
60965;DHT22;46834;51.100;6.886;2022-11-14T15:02:56;9.60;48.40
60965;DHT22;46834;51.100;6.886;2022-11-14T15:05:23;9.60;48.30
60965;DHT22;46834;51.100;6.886;2022-11-14T15:07:55;9.60;48.40
60965;DHT22;46834;51.100;6.886;2022-11-14T15:10:26;9.60;48.50
60965;DHT22;46834;51.100;6.886;2022-11-14T15:12:57;9.60;48.50
60965;DHT22;46834;51.100;6.886;2022-11-14T15:15:24;9.60;48.40
60965;DHT22;46834;51.100;6.886;2022-11-14T15:17:53;9.60;48.50
60965;DHT22;46834;51.100;6.886;2022-11-14T15:20:25;9.60;48.50
60965;DHT22;46834;51.100;6.886;2022-11-14T15:25:36;9.60;48.60
60965;DHT22;46834;51.100;6.886;2022-11-14T15:28:02;9.50;48.40
60965;DHT22;46834;51.100;6.886;2022-11-14T15:30:32;9.50;48.50
60965;DHT22;46834;51.100;6.886;2022-11-14T15:33:04;9.50;48.60
60965;DHT22;46834;51.100;6.886;2022-11-14T15:36:13;9.50;48.60
60965;DHT22;46834;51.100;6.886;2022-11-14T15:39:01;9.60;48.70
60965;DHT22;46834;51.100;6.886;2022-11-14T15:41:33;9.60;48.80
60965;DHT22;46834;51.100;6.886;2022-11-14T15:43:59;9.60;48.60
60965;DHT22;46834;51.100;6.886;2022-11-14T15:46:38;9.60;48.60
60965;DHT22;46834;51.100;6.886;2022-11-14T15:49:25;9.60;48.70
60965;DHT22;46834;51.100;6.886;2022-11-14T15:51:55;9.50;48.60
60965;DHT22;46834;51.100;6.886;2022-11-14T15:54:31;9.50;48.50
60965;DHT22;46834;51.100;6.886;2022-11-14T15:57:10;9.50;49.30
60965;DHT22;46834;51.100;6.886;2022-11-14T15:59:38;9.50;48.60
60965;DHT22;46834;51.100;6.886;2022-11-14T16:02:17;9.50;48.60
60965;DHT22;46834;51.100;6.886;2022-11-14T16:04:46;9.50;48.80
60965;DHT22;46834;51.100;6.886;2022-11-14T16:07:13;9.50;48.60
60965;DHT22;46834;51.100;6.886;2022-11-14T16:09:40;9.50;48.70
60965;DHT22;46834;51.100;6.886;2022-11-14T16:12:06;9.50;48.70
60965;DHT22;46834;51.100;6.886;2022-11-14T16:14:32;9.50;48.70
60965;DHT22;46834;51.100;6.886;2022-11-14T16:16:58;9.50;48.80
60965;DHT22;46834;51.100;6.886;2022-11-14T16:19:24;9.50;48.80
60965;DHT22;46834;51.100;6.886;2022-11-14T16:21:50;9.50;48.80
60965;DHT22;46834;51.100;6.886;2022-11-14T16:24:21;9.50;48.80
60965;DHT22;46834;51.100;6.886;2022-11-14T16:26:48;9.50;48.90
60965;DHT22;46834;51.100;6.886;2022-11-14T16:29:14;9.50;48.80
60965;DHT22;46834;51.100;6.886;2022-11-14T16:31:40;9.50;48.80
60965;DHT22;46834;51.100;6.886;2022-11-14T16:36:42;9.50;48.80
60965;DHT22;46834;51.100;6.886;2022-11-14T16:39:10;9.50;48.80
60965;DHT22;46834;51.100;6.886;2022-11-14T16:41:38;9.50;48.80
60965;DHT22;46834;51.100;6.886;2022-11-14T16:44:04;9.50;48.80
60965;DHT22;46834;51.100;6.886;2022-11-14T16:46:30;9.50;48.80
60965;DHT22;46834;51.100;6.886;2022-11-14T16:48:55;9.50;48.80
60965;DHT22;46834;51.100;6.886;2022-11-14T16:51:21;9.50;48.80
60965;DHT22;46834;51.100;6.886;2022-11-14T16:53:47;9.50;48.80
60965;DHT22;46834;51.100;6.886;2022-11-14T16:56:12;9.50;48.80
60965;DHT22;46834;51.100;6.886;2022-11-14T16:58:39;9.50;48.80
60965;DHT22;46834;51.100;6.886;2022-11-14T17:01:07;9.50;48.80
60965;DHT22;46834;51.100;6.886;2022-11-14T17:03:38;9.50;48.80
60965;DHT22;46834;51.100;6.886;2022-11-14T17:06:08;9.50;48.80
60965;DHT22;46834;51.100;6.886;2022-11-14T17:08:36;9.60;49.00
60965;DHT22;46834;51.100;6.886;2022-11-14T17:11:07;9.50;48.80
60965;DHT22;46834;51.100;6.886;2022-11-14T17:13:35;9.50;48.90
60965;DHT22;46834;51.100;6.886;2022-11-14T17:16:02;9.50;48.90
60965;DHT22;46834;51.100;6.886;2022-11-14T17:18:28;9.50;48.90
60965;DHT22;46834;51.100;6.886;2022-11-14T17:20:54;9.50;48.90
60965;DHT22;46834;51.100;6.886;2022-11-14T17:23:20;9.50;49.00
60965;DHT22;46834;51.100;6.886;2022-11-14T17:25:46;9.50;49.00
60965;DHT22;46834;51.100;6.886;2022-11-14T17:28:12;9.50;49.00
60965;DHT22;46834;51.100;6.886;2022-11-14T17:30:41;9.50;49.00
60965;DHT22;46834;51.100;6.886;2022-11-14T17:33:08;9.50;49.10
60965;DHT22;46834;51.100;6.886;2022-11-14T17:35:34;9.50;49.10
60965;DHT22;46834;51.100;6.886;2022-11-14T17:38:00;9.50;49.10
60965;DHT22;46834;51.100;6.886;2022-11-14T17:40:26;9.50;49.10
60965;DHT22;46834;51.100;6.886;2022-11-14T17:42:52;9.50;49.10
60965;DHT22;46834;51.100;6.886;2022-11-14T17:45:17;9.50;49.10
60965;DHT22;46834;51.100;6.886;2022-11-14T17:47:43;9.50;49.10
60965;DHT22;46834;51.100;6.886;2022-11-14T17:50:09;9.50;49.10
60965;DHT22;46834;51.100;6.886;2022-11-14T17:52:35;9.50;49.10
60965;DHT22;46834;51.100;6.886;2022-11-14T17:55:00;9.50;49.10
60965;DHT22;46834;51.100;6.886;2022-11-14T17:57:26;9.50;49.10
60965;DHT22;46834;51.100;6.886;2022-11-14T17:59:52;9.50;49.10